createdAt,value
2019-04-28T00:00:38.123Z,21.66
2019-04-28T00:03:51.474Z,21.60
2019-04-28T00:04:48.233Z,21.70
2019-04-28T00:05:48.727Z,21.58
2019-04-28T00:06:48.159Z,21.60
2019-04-28T00:07:50.571Z,21.70
2019-04-28T00:08:49.426Z,21.60
2019-04-28T00:09:48.097Z,21.60
2019-04-28T00:10:48.225Z,21.61
2019-04-28T00:11:48.121Z,21.67
2019-04-28T00:12:47.979Z,21.58
2019-04-28T00:13:48.408Z,21.70
2019-04-28T00:14:49.053Z,21.55
2019-04-28T00:15:48.055Z,21.70
2019-04-28T00:16:47.985Z,21.73
2019-04-28T00:17:47.864Z,21.57
2019-04-28T00:18:47.870Z,21.70
2019-04-28T00:19:47.883Z,21.70
2019-04-28T00:20:48.094Z,21.70
2019-04-28T00:21:47.990Z,21.64
2019-04-28T00:22:47.824Z,21.61
2019-04-28T00:23:47.886Z,21.69
2019-04-28T00:24:47.823Z,21.72
2019-04-28T00:25:47.783Z,21.54
2019-04-28T00:26:48.271Z,21.70
2019-04-28T00:27:47.791Z,21.57
2019-04-28T00:28:47.674Z,21.69
2019-04-28T00:29:48.906Z,21.70
2019-04-28T00:30:47.767Z,21.70
2019-04-28T00:31:48.118Z,21.57
2019-04-28T00:32:47.728Z,21.66
2019-04-28T00:33:47.774Z,21.67
2019-04-28T00:34:47.676Z,21.51
2019-04-28T00:35:47.741Z,21.60
2019-04-28T00:36:47.635Z,21.60
2019-04-28T00:37:47.727Z,21.62
2019-04-28T00:38:47.901Z,21.62
2019-04-28T00:39:47.620Z,21.72
2019-04-28T00:40:47.585Z,21.72
2019-04-28T00:41:48.143Z,21.60
2019-04-28T00:42:47.631Z,21.54
2019-04-28T00:43:47.726Z,21.70
2019-04-28T00:44:48.165Z,21.60
2019-04-28T00:45:47.730Z,21.61
2019-04-28T00:46:47.537Z,21.55
2019-04-28T01:03:32.147Z,21.64
2019-04-28T01:04:32.728Z,21.70
2019-04-28T01:05:31.259Z,21.64
2019-04-28T01:06:32.124Z,21.62
2019-04-28T01:07:32.968Z,21.57
2019-04-28T01:08:32.185Z,21.62
2019-04-28T01:09:32.176Z,21.55
2019-04-28T01:10:31.070Z,21.70
2019-04-28T01:11:31.717Z,21.62
2019-04-28T01:12:31.269Z,21.58
2019-04-28T01:13:32.008Z,21.69
2019-04-28T01:14:31.813Z,21.58
2019-04-28T01:15:31.318Z,21.70
2019-04-28T01:16:31.146Z,21.66
2019-04-28T01:17:30.978Z,21.66
2019-04-28T01:18:31.073Z,21.64
2019-04-28T01:19:31.157Z,21.51
2019-04-28T01:20:31.033Z,21.70
2019-04-28T01:21:32.380Z,21.70
2019-04-28T01:22:30.958Z,21.55
2019-04-28T01:23:31.246Z,21.58
2019-04-28T01:24:31.032Z,21.64
2019-04-28T01:25:31.725Z,21.62
2019-04-28T01:26:30.911Z,21.55
2019-04-28T01:27:31.247Z,21.67
2019-04-28T01:28:30.975Z,21.69
2019-04-28T01:29:31.347Z,21.52
2019-04-28T01:30:30.880Z,21.67
2019-04-28T01:31:30.830Z,21.64
2019-04-28T01:32:30.832Z,21.66
2019-04-28T01:33:31.257Z,21.58
2019-04-28T01:34:31.164Z,21.55
2019-04-28T01:35:31.668Z,21.66
2019-04-28T01:36:30.873Z,21.48
2019-04-28T01:37:31.307Z,21.60
2019-04-28T01:38:30.830Z,21.52
2019-04-28T01:39:30.886Z,21.60
2019-04-28T01:40:30.825Z,21.62
2019-04-28T01:41:30.723Z,21.66
2019-04-28T01:42:30.797Z,21.66
2019-04-28T01:43:31.302Z,21.64
2019-04-28T01:44:30.822Z,21.66
2019-04-28T01:45:31.058Z,21.55
2019-04-28T01:46:30.630Z,21.57
2019-04-28T01:47:30.908Z,21.58
2019-04-28T01:48:31.529Z,21.58
2019-04-28T01:49:30.735Z,21.57
2019-04-28T01:50:30.670Z,21.55
2019-04-28T01:51:32.066Z,21.62
2019-04-28T01:52:30.827Z,21.55
2019-04-28T01:53:31.015Z,21.64
2019-04-28T01:54:30.573Z,21.52
2019-04-28T01:55:31.758Z,21.67
2019-04-28T01:56:30.919Z,21.55
2019-04-28T01:57:31.352Z,21.58
2019-04-28T01:58:31.503Z,21.60
2019-04-28T01:59:30.873Z,21.67
2019-04-28T02:00:30.675Z,21.57
2019-04-28T02:01:30.627Z,21.57
2019-04-28T02:02:30.493Z,21.61
2019-04-28T02:03:31.346Z,21.57
2019-04-28T02:04:32.499Z,21.57
2019-04-28T02:05:30.445Z,21.67
2019-04-28T02:06:30.576Z,21.57
2019-04-28T02:07:32.774Z,21.57
2019-04-28T02:08:30.589Z,21.62
2019-04-28T02:09:31.078Z,21.58
2019-04-28T02:10:30.481Z,21.55
2019-04-28T02:11:30.513Z,21.57
2019-04-28T02:12:31.415Z,21.57
2019-04-28T02:13:32.036Z,21.61
2019-04-28T02:14:30.937Z,21.57
2019-04-28T02:15:31.037Z,21.57
2019-04-28T02:16:30.442Z,21.55
2019-04-28T02:17:30.658Z,21.67
2019-04-28T02:18:30.385Z,21.57
2019-04-28T02:19:33.044Z,21.57
2019-04-28T02:20:30.396Z,21.62
2019-04-28T02:21:30.434Z,21.52
2019-04-28T02:22:31.815Z,21.50
2019-04-28T02:23:30.392Z,21.54
2019-04-28T02:24:30.854Z,21.67
2019-04-28T02:25:30.276Z,21.66
2019-04-28T02:26:30.326Z,21.57
2019-04-28T02:27:31.277Z,21.57
2019-04-28T02:28:30.554Z,21.58
2019-04-28T02:29:30.349Z,21.55
2019-04-28T02:30:44.023Z,21.57
2019-04-28T02:31:31.696Z,21.61
2019-04-28T02:32:30.922Z,21.58
2019-04-28T02:33:31.242Z,21.61
2019-04-28T02:34:31.201Z,21.61
2019-04-28T02:35:31.647Z,21.62
2019-04-28T02:36:31.195Z,21.55
2019-04-28T02:37:31.023Z,21.52
2019-04-28T02:38:31.413Z,21.55
2019-04-28T02:39:31.247Z,21.57
2019-04-28T02:40:31.188Z,21.58
2019-04-28T02:41:33.769Z,21.52
2019-04-28T02:42:30.963Z,21.62
2019-04-28T02:43:31.224Z,21.58
2019-04-28T02:44:33.449Z,21.60
2019-04-28T02:45:31.841Z,21.61
2019-04-28T02:46:31.015Z,21.52
2019-04-28T02:47:33.533Z,21.61
2019-04-28T02:48:31.215Z,21.60
2019-04-28T02:49:30.662Z,21.52
2019-04-28T02:50:30.495Z,21.61
2019-04-28T02:51:30.863Z,21.57
2019-04-28T02:52:30.905Z,21.55
2019-04-28T02:53:33.160Z,21.58
2019-04-28T02:54:30.590Z,21.60
2019-04-28T02:55:31.595Z,21.57
2019-04-28T02:56:30.794Z,21.55
2019-04-28T02:57:30.444Z,21.57
2019-04-28T02:58:31.301Z,21.64
2019-04-28T02:59:30.516Z,21.61
2019-04-28T03:00:31.671Z,21.54
2019-04-28T03:01:30.801Z,21.57
2019-04-28T03:02:31.887Z,21.55
2019-04-28T03:03:30.811Z,21.61
2019-04-28T03:04:30.791Z,21.60
2019-04-28T03:05:30.307Z,21.60
2019-04-28T03:06:30.596Z,21.55
2019-04-28T03:07:31.250Z,21.57
2019-04-28T03:08:30.623Z,21.61
2019-04-28T03:09:30.751Z,21.51
2019-04-28T03:10:31.043Z,21.54
2019-04-28T03:11:31.483Z,21.55
2019-04-28T03:12:31.377Z,21.57
2019-04-28T03:13:31.231Z,21.57
2019-04-28T03:14:30.606Z,21.58
2019-04-28T03:15:30.375Z,21.60
2019-04-28T03:16:30.423Z,21.55
2019-04-28T03:17:31.069Z,21.58
2019-04-28T03:18:31.592Z,21.55
2019-04-28T03:19:33.783Z,21.58
2019-04-28T03:20:30.633Z,21.57
2019-04-28T03:21:31.299Z,21.55
2019-04-28T03:22:31.290Z,21.60
2019-04-28T03:23:31.059Z,21.58
2019-04-28T03:24:31.544Z,21.57
2019-04-28T03:28:33.723Z,21.58
2019-04-28T03:29:31.207Z,21.57
2019-04-28T03:30:33.802Z,21.55
2019-04-28T03:32:07.349Z,21.60
2019-04-28T03:32:43.879Z,21.58
2019-04-28T03:33:37.954Z,21.58
2019-04-28T03:34:36.597Z,21.51
2019-04-28T03:35:32.476Z,21.57
2019-04-28T03:36:33.209Z,21.55
2019-04-28T03:37:31.680Z,21.57
2019-04-28T03:38:31.132Z,21.54
2019-04-28T03:39:31.041Z,21.57
2019-04-28T03:40:33.712Z,21.54
2019-04-28T03:41:31.248Z,21.57
2019-04-28T03:42:31.541Z,21.58
2019-04-28T03:43:32.018Z,21.55
2019-04-28T03:44:33.638Z,21.54
2019-04-28T03:47:10.609Z,21.57
2019-04-28T03:48:08.349Z,21.58
2019-04-28T03:49:10.758Z,21.52
2019-04-28T03:50:10.416Z,21.55
2019-04-28T03:51:12.958Z,21.54
2019-04-28T03:52:10.704Z,21.57
2019-04-28T03:53:11.007Z,21.51
2019-04-28T03:54:10.281Z,21.58
2019-04-28T03:55:08.319Z,21.60
2019-04-28T03:56:08.157Z,21.61
2019-04-28T03:57:31.955Z,21.54
2019-04-28T03:58:10.356Z,21.57
2019-04-28T03:59:10.259Z,21.48
2019-04-28T04:00:10.843Z,21.58
2019-04-28T04:01:10.819Z,21.48
2019-04-28T04:02:10.971Z,21.62
2019-04-28T04:03:10.652Z,21.51
2019-04-28T04:04:08.094Z,21.54
2019-04-28T04:05:10.879Z,21.50
2019-04-28T04:06:10.356Z,21.57
2019-04-28T04:07:07.971Z,21.54
2019-04-28T04:08:11.033Z,21.52
2019-04-28T04:09:08.039Z,21.50
2019-04-28T04:10:11.184Z,21.57
2019-04-28T04:11:10.817Z,21.55
2019-04-28T04:12:08.525Z,21.48
2019-04-28T04:13:10.776Z,21.51
2019-04-28T04:14:11.294Z,21.58
2019-04-28T04:15:08.008Z,21.48
2019-04-28T04:16:10.264Z,21.50
2019-04-28T04:17:11.362Z,21.57
2019-04-28T04:18:10.870Z,21.46
2019-04-28T04:19:10.427Z,21.52
2019-04-28T04:20:07.869Z,21.55
2019-04-28T04:21:10.857Z,21.52
2019-04-28T04:22:10.059Z,21.55
2019-04-28T04:23:11.085Z,21.60
2019-04-28T04:24:10.642Z,21.45
2019-04-28T04:25:10.171Z,21.48
2019-04-28T04:26:07.853Z,21.51
2019-04-28T04:27:07.765Z,21.62
2019-04-28T04:28:10.028Z,21.58
2019-04-28T04:29:10.156Z,21.57
2019-04-28T04:30:10.662Z,21.48
2019-04-28T04:31:10.235Z,21.57
2019-04-28T04:32:15.522Z,21.52
2019-04-28T04:33:11.178Z,21.51
2019-04-28T04:34:10.505Z,21.54
2019-04-28T04:35:10.370Z,21.60
2019-04-28T04:36:07.702Z,21.52
2019-04-28T04:37:07.630Z,21.51
2019-04-28T04:38:10.263Z,21.57
2019-04-28T04:39:10.581Z,21.55
2019-04-28T04:40:07.623Z,21.48
2019-04-28T04:41:10.926Z,21.50
2019-04-28T04:42:10.343Z,21.52
2019-04-28T04:43:07.662Z,21.52
2019-04-28T04:44:11.179Z,21.48
2019-04-28T04:45:10.370Z,21.52
2019-04-28T04:46:07.603Z,21.48
2019-04-28T04:47:07.731Z,21.54
2019-04-28T04:48:07.502Z,21.55
2019-04-28T04:49:07.677Z,21.52
2019-04-28T04:50:07.598Z,21.45
2019-04-28T04:51:07.482Z,21.52
2019-04-28T04:52:10.387Z,21.45
2019-04-28T04:53:07.679Z,21.51
2019-04-28T04:54:07.452Z,21.51
2019-04-28T04:55:07.567Z,21.50
2019-04-28T04:56:07.615Z,21.51
2019-04-28T04:57:07.526Z,21.52
2019-04-28T04:58:10.637Z,21.51
2019-04-28T04:59:10.329Z,21.55
2019-04-28T05:00:09.897Z,21.46
2019-04-28T05:01:07.407Z,21.48
2019-04-28T05:02:07.345Z,21.58
2019-04-28T05:03:07.450Z,21.45
2019-04-28T05:04:07.471Z,21.52
2019-04-28T05:05:07.436Z,21.52
2019-04-28T05:06:09.685Z,21.48
2019-04-28T05:07:07.457Z,21.52
2019-04-28T05:08:07.448Z,21.51
2019-04-28T05:09:07.460Z,21.54
2019-04-28T05:10:07.383Z,21.48
2019-04-28T05:11:09.602Z,21.46
2019-04-28T05:12:07.243Z,21.46
2019-04-28T05:13:07.785Z,21.54
2019-04-28T05:14:09.643Z,21.54
2019-04-28T05:15:07.251Z,21.51
2019-04-28T05:16:07.235Z,21.55
2019-04-28T05:17:07.707Z,21.42
2019-04-28T05:18:07.271Z,21.55
2019-04-28T05:19:09.548Z,21.43
2019-04-28T05:20:07.286Z,21.46
2019-04-28T05:21:07.175Z,21.48
2019-04-28T05:22:07.425Z,21.52
2019-04-28T05:23:07.184Z,21.46
2019-04-28T05:24:09.233Z,21.48
2019-04-28T05:25:10.314Z,21.60
2019-04-28T05:26:08.036Z,21.51
2019-04-28T05:27:07.090Z,21.42
2019-04-28T05:28:07.090Z,21.60
2019-04-28T05:29:07.715Z,21.40
2019-04-28T05:30:07.155Z,21.52
2019-04-28T05:31:11.304Z,21.46
2019-04-28T05:32:10.824Z,21.45
2019-04-28T05:33:07.037Z,21.45
2019-04-28T05:34:08.170Z,21.50
2019-04-28T05:35:07.122Z,21.51
2019-04-28T05:36:07.061Z,21.50
2019-04-28T05:37:06.968Z,21.52
2019-04-28T05:38:07.055Z,21.46
2019-04-28T05:39:07.074Z,21.40
2019-04-28T05:40:06.945Z,21.54
2019-04-28T05:41:07.265Z,21.50
2019-04-28T05:42:06.898Z,21.43
2019-04-28T05:43:08.100Z,21.54
2019-04-28T05:44:09.922Z,21.54
2019-04-28T05:45:06.864Z,21.52
2019-04-28T05:46:07.739Z,21.54
2019-04-28T05:47:09.795Z,21.48
2019-04-28T05:48:08.965Z,21.54
2019-04-28T05:49:06.836Z,21.45
2019-04-28T05:50:07.852Z,21.45
2019-04-28T05:51:06.983Z,21.42
2019-04-28T05:52:06.950Z,21.46
2019-04-28T05:53:10.283Z,21.48
2019-04-28T05:54:06.769Z,21.46
2019-04-28T05:55:06.817Z,21.40
2019-04-28T05:56:07.123Z,21.50
2019-04-28T05:57:06.915Z,21.48
2019-04-28T05:58:07.197Z,21.50
2019-04-28T05:59:07.302Z,21.60
2019-04-28T06:00:06.811Z,21.48
2019-04-28T06:01:06.871Z,21.48
2019-04-28T06:02:06.838Z,21.43
2019-04-28T06:03:06.662Z,21.52
2019-04-28T06:04:07.074Z,21.46
2019-04-28T06:05:07.419Z,21.52
2019-04-28T06:06:06.685Z,21.50
2019-04-28T06:07:06.624Z,21.52
2019-04-28T06:08:06.762Z,21.52
2019-04-28T06:09:07.306Z,21.52
2019-04-28T06:10:06.731Z,21.54
2019-04-28T06:11:06.669Z,21.48
2019-04-28T06:12:06.604Z,21.48
2019-04-28T06:13:06.943Z,21.48
2019-04-28T06:14:06.573Z,21.50
2019-04-28T06:15:06.695Z,21.48
2019-04-28T06:16:06.641Z,21.48
2019-04-28T06:17:06.834Z,21.48
2019-04-28T06:18:07.754Z,21.51
2019-04-28T06:19:06.614Z,21.45
2019-04-28T06:20:07.424Z,21.51
2019-04-28T06:21:06.479Z,21.48
2019-04-28T06:22:06.631Z,21.45
2019-04-28T06:23:06.800Z,21.51
2019-04-28T06:24:06.581Z,21.54
2019-04-28T06:25:06.523Z,21.50
2019-04-28T06:26:06.463Z,21.48
2019-04-28T06:27:06.691Z,21.54
2019-04-28T06:28:06.473Z,21.46
2019-04-28T06:29:07.141Z,21.50
2019-04-28T06:30:06.463Z,21.48
2019-04-28T06:31:08.275Z,21.43
2019-04-28T06:32:06.377Z,21.42
2019-04-28T06:33:08.238Z,21.52
2019-04-28T06:34:07.135Z,21.45
2019-04-28T06:35:06.609Z,21.45
2019-04-28T06:36:06.313Z,21.46
2019-04-28T06:37:06.422Z,21.50
2019-04-28T06:38:07.224Z,21.50
2019-04-28T06:39:06.386Z,21.46
2019-04-28T06:40:07.411Z,21.48
2019-04-28T06:41:07.271Z,21.51
2019-04-28T06:42:06.357Z,21.50
2019-04-28T06:43:06.411Z,21.45
2019-04-28T06:44:07.739Z,21.42
2019-04-28T06:45:06.219Z,21.48
2019-04-28T06:46:06.265Z,21.54
2019-04-28T06:47:06.700Z,21.46
2019-04-28T06:48:06.164Z,21.54
2019-04-28T06:49:06.355Z,21.36
2019-04-28T06:50:06.305Z,21.48
2019-04-28T06:51:06.362Z,21.46
2019-04-28T06:52:06.142Z,21.40
2019-04-28T06:53:06.187Z,21.42
2019-04-28T06:54:06.124Z,21.50
2019-04-28T06:55:06.065Z,21.51
2019-04-28T06:56:06.096Z,21.51
2019-04-28T06:57:06.182Z,21.51
2019-04-28T06:58:06.185Z,21.46
2019-04-28T06:59:06.389Z,21.50
2019-04-28T07:00:06.126Z,21.48
2019-04-28T07:01:06.147Z,21.46
2019-04-28T07:02:06.321Z,21.51
2019-04-28T07:03:06.033Z,21.39
2019-04-28T07:04:06.029Z,21.42
2019-04-28T07:05:06.815Z,21.52
2019-04-28T07:06:06.032Z,21.48
2019-04-28T07:07:05.966Z,21.46
2019-04-28T07:08:06.038Z,21.45
2019-04-28T07:09:06.185Z,21.43
2019-04-28T07:10:06.493Z,21.51
2019-04-28T07:11:07.071Z,21.43
2019-04-28T07:12:06.041Z,21.40
2019-04-28T07:13:05.974Z,21.50
2019-04-28T07:14:05.876Z,21.52
2019-04-28T07:15:06.293Z,21.45
2019-04-28T07:16:05.900Z,21.50
2019-04-28T07:17:06.340Z,21.51
2019-04-28T07:18:05.818Z,21.48
2019-04-28T07:19:05.894Z,21.46
2019-04-28T07:20:05.842Z,21.46
2019-04-28T07:21:05.931Z,21.45
2019-04-28T07:22:05.872Z,21.45
2019-04-28T07:23:06.929Z,21.52
2019-04-28T07:24:05.795Z,21.46
2019-04-28T07:25:05.849Z,21.43
2019-04-28T07:26:05.741Z,21.50
2019-04-28T07:27:05.829Z,21.45
2019-04-28T07:28:05.794Z,21.50
2019-04-28T07:29:06.200Z,21.50
2019-04-28T07:30:05.807Z,21.46
2019-04-28T07:31:05.721Z,21.42
2019-04-28T07:32:05.748Z,21.52
2019-04-28T07:33:05.771Z,21.51
2019-04-28T07:34:05.678Z,21.51
2019-04-28T07:35:05.896Z,21.46
2019-04-28T07:36:05.722Z,21.46
2019-04-28T07:37:05.700Z,21.42
2019-04-28T07:38:05.735Z,21.48
2019-04-28T07:39:05.652Z,21.46
2019-04-28T07:40:05.595Z,21.51
2019-04-28T07:41:05.813Z,21.48
2019-04-28T07:42:06.649Z,21.43
2019-04-28T07:43:06.825Z,21.42
2019-04-28T07:44:05.574Z,21.46
2019-04-28T07:45:05.696Z,21.43
2019-04-28T07:46:05.479Z,21.46
2019-04-28T07:47:05.848Z,21.51
2019-04-28T07:48:05.536Z,21.51
2019-04-28T07:49:05.603Z,21.50
2019-04-28T07:50:05.543Z,21.46
2019-04-28T07:51:06.147Z,21.50
2019-04-28T07:52:05.577Z,21.45
2019-04-28T07:53:05.819Z,21.42
2019-04-28T07:54:05.519Z,21.46
2019-04-28T07:55:05.534Z,21.39
2019-04-28T07:56:05.449Z,21.42
2019-04-28T07:57:05.696Z,21.52
2019-04-28T07:58:06.055Z,21.51
2019-04-28T07:59:05.804Z,21.43
2019-04-28T08:00:05.446Z,21.45
2019-04-28T08:01:05.442Z,21.46
2019-04-28T08:02:05.451Z,21.42
2019-04-28T08:03:05.343Z,21.45
2019-04-28T08:04:05.388Z,21.45
2019-04-28T08:07:20.427Z,21.45
2019-04-28T08:08:20.518Z,21.43
2019-04-28T08:09:20.393Z,21.45
2019-04-28T08:10:20.510Z,21.48
2019-04-28T08:11:20.355Z,21.39
2019-04-28T08:12:20.756Z,21.48
2019-04-28T08:13:20.785Z,21.45
2019-04-28T08:14:20.376Z,21.45
2019-04-28T08:15:20.460Z,21.45
2019-04-28T08:16:20.448Z,21.46
2019-04-28T08:17:20.326Z,21.48
2019-04-28T08:18:20.251Z,21.50
2019-04-28T08:19:20.297Z,21.46
2019-04-28T08:20:20.633Z,21.48
2019-04-28T08:21:20.170Z,21.48
2019-04-28T08:22:20.333Z,21.42
2019-04-28T08:23:20.265Z,21.45
2019-04-28T08:24:20.163Z,21.42
2019-04-28T08:25:20.692Z,21.46
2019-04-28T08:26:20.052Z,21.42
2019-04-28T08:27:21.301Z,21.46
2019-04-28T08:28:20.106Z,21.45
2019-04-28T08:29:20.154Z,21.43
2019-04-28T08:30:20.120Z,21.48
2019-04-28T08:31:20.776Z,21.46
2019-04-28T08:32:22.171Z,21.46
2019-04-28T08:33:20.644Z,21.46
2019-04-28T08:34:20.065Z,21.43
2019-04-28T08:35:20.066Z,21.46
2019-04-28T08:36:20.325Z,21.36
2019-04-28T08:37:20.630Z,21.48
2019-04-28T08:38:20.168Z,21.46
2019-04-28T08:39:20.016Z,21.42
2019-04-28T08:41:31.107Z,21.43
2019-04-28T08:42:30.380Z,21.42
2019-04-28T08:43:30.041Z,21.43
2019-04-28T08:44:30.110Z,21.43
2019-04-28T08:45:30.037Z,21.45
2019-04-28T08:46:30.972Z,21.42
2019-04-28T08:47:30.198Z,21.40
2019-04-28T08:48:30.383Z,21.46
2019-04-28T08:49:29.924Z,21.40
2019-04-28T08:50:30.124Z,21.43
2019-04-28T08:51:30.813Z,21.46
2019-04-28T08:52:29.932Z,21.39
2019-04-28T08:53:29.909Z,21.46
2019-04-28T08:54:30.463Z,21.40
2019-04-28T08:55:30.776Z,21.39
2019-04-28T08:56:29.918Z,21.42
2019-04-28T08:57:31.710Z,21.43
2019-04-28T08:58:29.889Z,21.43
2019-04-28T08:59:29.755Z,21.42
2019-04-28T09:00:29.881Z,21.45
2019-04-28T09:01:29.834Z,21.45
2019-04-28T09:02:29.806Z,21.50
2019-04-28T09:03:29.889Z,21.42
2019-04-28T09:04:29.800Z,21.45
2019-04-28T09:05:29.796Z,21.37
2019-04-28T09:06:29.948Z,21.45
2019-04-28T09:07:29.647Z,21.43
2019-04-28T09:08:29.653Z,21.43
2019-04-28T09:09:29.919Z,21.43
2019-04-28T09:10:29.768Z,21.43
2019-04-28T09:11:29.959Z,21.40
2019-04-28T09:12:29.843Z,21.43
2019-04-28T09:13:29.578Z,21.42
2019-04-28T09:14:29.623Z,21.48
2019-04-28T09:15:29.692Z,21.36
2019-04-28T09:16:29.628Z,21.42
2019-04-28T09:17:30.029Z,21.48
2019-04-28T09:18:29.980Z,21.42
2019-04-28T09:19:30.776Z,21.37
2019-04-28T09:20:29.506Z,21.42
2019-04-28T09:21:29.698Z,21.42
2019-04-28T09:22:29.621Z,21.43
2019-04-28T09:23:29.574Z,21.43
2019-04-28T09:24:29.955Z,21.40
2019-04-28T09:25:29.496Z,21.48
2019-04-28T09:26:29.568Z,21.43
2019-04-28T09:27:29.707Z,21.42
2019-04-28T09:28:29.466Z,21.42
2019-04-28T09:29:30.455Z,21.42
2019-04-28T09:30:31.017Z,21.43
2019-04-28T09:31:29.383Z,21.39
2019-04-28T09:32:29.359Z,21.45
2019-04-28T09:33:29.379Z,21.43
2019-04-28T09:34:29.404Z,21.42
2019-04-28T09:35:29.714Z,21.40
2019-04-28T09:36:30.734Z,21.43
2019-04-28T09:37:29.329Z,21.37
2019-04-28T09:38:29.474Z,21.43
2019-04-28T09:39:29.409Z,21.40
2019-04-28T09:40:29.419Z,21.46
2019-04-28T09:41:29.344Z,21.40
2019-04-28T09:42:29.762Z,21.50
2019-04-28T09:43:29.532Z,21.43
2019-04-28T09:44:29.237Z,21.45
2019-04-28T09:45:29.347Z,21.42
2019-04-28T09:46:29.401Z,21.42
2019-04-28T09:47:29.230Z,21.40
2019-04-28T09:48:29.257Z,21.42
2019-04-28T09:49:29.304Z,21.43
2019-04-28T09:50:29.341Z,21.37
2019-04-28T09:51:29.297Z,21.40
2019-04-28T09:52:29.133Z,21.43
2019-04-28T09:53:29.239Z,21.45
2019-04-28T09:54:29.426Z,21.42
2019-04-28T09:55:29.460Z,21.37
2019-04-28T09:56:29.273Z,21.39
2019-04-28T09:57:29.113Z,21.37
2019-04-28T09:58:29.186Z,21.43
2019-04-28T09:59:29.254Z,21.40
2019-04-28T10:00:29.164Z,21.43
2019-04-28T10:01:29.063Z,21.43
2019-04-28T10:02:29.166Z,21.40
2019-04-28T10:03:30.090Z,21.46
2019-04-28T10:04:40.976Z,21.48
2019-04-28T10:05:30.367Z,21.45
2019-04-28T10:06:29.837Z,21.45
2019-04-28T10:07:29.006Z,21.48
2019-04-28T10:08:29.108Z,21.43
2019-04-28T10:09:29.049Z,21.42
2019-04-28T10:10:29.043Z,21.42
2019-04-28T10:11:30.677Z,21.45
2019-04-28T10:12:29.088Z,21.42
2019-04-28T10:13:29.110Z,21.45
2019-04-28T10:14:29.009Z,21.39
2019-04-28T10:15:28.899Z,21.50
2019-04-28T10:16:28.806Z,21.42
2019-04-28T10:17:28.961Z,21.42
2019-04-28T10:18:28.837Z,21.40
2019-04-28T10:19:28.838Z,21.42
2019-04-28T10:20:28.921Z,21.43
2019-04-28T10:21:28.757Z,21.37
2019-04-28T10:22:28.993Z,21.36
2019-04-28T10:23:29.729Z,21.48
2019-04-28T10:24:28.927Z,21.43
2019-04-28T10:25:28.930Z,21.37
2019-04-28T10:26:28.746Z,21.46
2019-04-28T10:27:28.748Z,21.36
2019-04-28T10:28:29.104Z,21.43
2019-04-28T10:29:32.894Z,21.40
2019-04-28T10:30:30.763Z,21.42
2019-04-28T10:31:28.830Z,21.46
2019-04-28T10:32:28.880Z,21.36
2019-04-28T10:33:29.289Z,21.43
2019-04-28T10:34:28.820Z,21.45
2019-04-28T10:35:28.736Z,21.45
2019-04-28T10:36:29.401Z,21.42
2019-04-28T10:37:28.638Z,21.37
2019-04-28T10:38:28.661Z,21.42
2019-04-28T10:39:28.574Z,21.35
2019-04-28T10:40:28.703Z,21.46
2019-04-28T10:41:29.382Z,21.40
2019-04-28T10:42:28.691Z,21.42
2019-04-28T10:43:28.591Z,21.36
2019-04-28T10:44:28.676Z,21.37
2019-04-28T10:45:28.943Z,21.43
2019-04-28T10:46:28.526Z,21.48
2019-04-28T10:47:28.752Z,21.39
2019-04-28T10:48:28.563Z,21.42
2019-04-28T10:49:29.844Z,21.42
2019-04-28T10:50:28.547Z,21.46
2019-04-28T10:51:28.456Z,21.43
2019-04-28T10:52:28.462Z,21.46
2019-04-28T10:53:29.026Z,21.43
2019-04-28T10:54:29.515Z,21.40
2019-04-28T10:55:28.563Z,21.43
2019-04-28T10:56:28.682Z,21.37
2019-04-28T10:57:28.553Z,21.46
2019-04-28T10:58:28.974Z,21.39
2019-04-28T10:59:29.343Z,21.40
2019-04-28T11:00:28.532Z,21.35
2019-04-28T11:01:28.573Z,21.48
2019-04-28T11:02:28.461Z,21.42
2019-04-28T11:03:28.472Z,21.36
2019-04-28T11:04:28.431Z,21.43
2019-04-28T11:05:29.275Z,21.45
2019-04-28T11:06:28.387Z,21.46
2019-04-28T11:07:28.278Z,21.42
2019-04-28T11:08:28.678Z,21.43
2019-04-28T11:09:30.711Z,21.48
2019-04-28T11:10:28.429Z,21.43
2019-04-28T11:11:28.350Z,21.42
2019-04-28T11:12:28.260Z,21.46
2019-04-28T11:13:28.339Z,21.46
2019-04-28T11:14:28.334Z,21.37
2019-04-28T11:15:28.251Z,21.43
2019-04-28T11:16:28.288Z,21.37
2019-04-28T11:17:28.478Z,21.42
2019-04-28T11:18:28.257Z,21.42
2019-04-28T11:19:28.173Z,21.35
2019-04-28T11:20:28.209Z,21.43
2019-04-28T11:21:28.079Z,21.43
2019-04-28T11:22:28.245Z,21.46
2019-04-28T11:23:28.454Z,21.43
2019-04-28T11:24:28.156Z,21.40
2019-04-28T11:25:28.160Z,21.48
2019-04-28T11:26:28.044Z,21.48
2019-04-28T11:27:28.116Z,21.40
2019-04-28T11:28:28.180Z,21.40
2019-04-28T11:31:06.680Z,21.39
2019-04-28T11:32:05.727Z,21.37
2019-04-28T11:33:05.639Z,21.37
2019-04-28T11:34:05.715Z,21.39
2019-04-28T11:35:05.699Z,21.39
2019-04-28T11:36:05.559Z,21.40
2019-04-28T11:37:05.908Z,21.42
2019-04-28T11:38:05.742Z,21.37
2019-04-28T11:39:05.647Z,21.39
2019-04-28T11:40:05.392Z,21.43
2019-04-28T11:41:07.586Z,21.36
2019-04-28T11:42:05.522Z,21.37
2019-04-28T11:43:05.632Z,21.37
2019-04-28T11:44:05.552Z,21.45
2019-04-28T11:45:06.587Z,21.39
2019-04-28T11:46:05.673Z,21.43
2019-04-28T11:47:05.361Z,21.42
2019-04-28T11:48:05.578Z,21.42
2019-04-28T11:49:06.710Z,21.42
2019-04-28T11:50:05.396Z,21.43
2019-04-28T11:51:06.423Z,21.48
2019-04-28T11:52:05.314Z,21.33
2019-04-28T11:53:05.346Z,21.42
2019-04-28T11:54:05.369Z,21.42
2019-04-28T11:55:06.440Z,21.36
2019-04-28T11:56:05.470Z,21.43
2019-04-28T11:57:05.287Z,21.42
2019-04-28T11:58:05.270Z,21.36
2019-04-28T11:59:05.442Z,21.43
2019-04-28T12:00:05.328Z,21.43
2019-04-28T12:01:05.334Z,21.39
2019-04-28T12:02:05.138Z,21.48
2019-04-28T12:03:05.306Z,21.37
2019-04-28T12:04:05.275Z,21.42
2019-04-28T12:05:05.218Z,21.37
2019-04-28T12:06:05.295Z,21.45
2019-04-28T12:07:05.261Z,21.42
2019-04-28T12:08:05.156Z,21.35
2019-04-28T12:09:05.114Z,21.40
2019-04-28T12:10:06.610Z,21.37
2019-04-28T12:11:05.424Z,21.37
2019-04-28T12:12:05.216Z,21.39
2019-04-28T12:13:05.215Z,21.42
2019-04-28T12:14:05.318Z,21.40
2019-04-28T12:15:05.081Z,21.33
2019-04-28T12:16:05.110Z,21.43
2019-04-28T12:17:05.119Z,21.37
2019-04-28T12:18:05.112Z,21.39
2019-04-28T12:19:05.233Z,21.45
2019-04-28T12:20:05.117Z,21.36
2019-04-28T12:21:05.015Z,21.39
2019-04-28T12:22:04.968Z,21.36
2019-04-28T12:23:05.046Z,21.35
2019-04-28T12:24:05.061Z,21.35
2019-04-28T12:25:05.162Z,21.42
2019-04-28T12:26:04.936Z,21.36
2019-04-28T12:27:06.102Z,21.39
2019-04-28T12:28:05.058Z,21.40
2019-04-28T12:29:04.995Z,21.39
2019-04-28T12:30:05.122Z,21.35
2019-04-28T12:31:05.036Z,21.37
2019-04-28T12:32:05.029Z,21.37
2019-04-28T12:33:05.579Z,21.39
2019-04-28T12:34:04.989Z,21.36
2019-04-28T12:35:04.839Z,21.42
2019-04-28T12:36:04.936Z,21.42
2019-04-28T12:37:05.270Z,21.39
2019-04-28T12:38:04.918Z,21.42
2019-04-28T12:39:04.842Z,21.40
2019-04-28T12:40:04.948Z,21.37
2019-04-28T12:41:04.889Z,21.37
2019-04-28T12:42:04.899Z,21.37
2019-04-28T12:43:04.882Z,21.35
2019-04-28T12:44:04.809Z,21.39
2019-04-28T12:45:05.751Z,21.35
2019-04-28T12:46:04.742Z,21.35
2019-04-28T12:47:04.815Z,21.39
2019-04-28T12:51:24.670Z,21.32
2019-04-28T12:52:22.392Z,21.40
2019-04-28T12:53:22.260Z,21.35
2019-04-28T12:54:22.333Z,21.32
2019-04-28T12:55:22.532Z,21.37
2019-04-28T12:56:22.339Z,21.39
2019-04-28T12:57:22.296Z,21.32
2019-04-28T12:58:22.324Z,21.39
2019-04-28T12:59:23.073Z,21.32
2019-04-28T13:00:22.355Z,21.37
2019-04-28T13:01:22.254Z,21.37
2019-04-28T13:02:22.154Z,21.39
2019-04-28T13:03:23.111Z,21.37
2019-04-28T13:04:22.992Z,21.35
2019-04-28T13:05:22.123Z,21.35
2019-04-28T13:06:22.178Z,21.36
2019-04-28T13:07:22.183Z,21.39
2019-04-28T13:08:23.069Z,21.37
2019-04-28T13:09:22.351Z,21.37
2019-04-28T13:10:22.000Z,21.40
2019-04-28T13:11:22.062Z,21.35
2019-04-28T13:12:21.924Z,21.35
2019-04-28T13:13:22.026Z,21.39
2019-04-28T13:14:22.057Z,21.33
2019-04-28T13:15:22.227Z,21.35
2019-04-28T13:16:22.056Z,21.35
2019-04-28T13:17:21.919Z,21.39
2019-04-28T13:18:22.724Z,21.35
2019-04-28T13:19:22.012Z,21.35
2019-04-28T13:20:21.941Z,21.37
2019-04-28T13:21:22.246Z,21.39
2019-04-28T13:22:21.989Z,21.40
2019-04-28T13:23:21.917Z,21.32